sensor_id;sensor_type;location;lat;lon;timestamp;temperature;humidity
13898;DHT22;7019;50.766;4.474;2023-08-01T00:00:45;16.30;99.90
13898;DHT22;7019;50.766;4.474;2023-08-01T00:03:12;16.30;99.90
13898;DHT22;7019;50.766;4.474;2023-08-01T00:05:41;16.20;99.90
13898;DHT22;7019;50.766;4.474;2023-08-01T00:08:10;16.20;99.90
13898;DHT22;7019;50.766;4.474;2023-08-01T00:10:38;16.20;99.90
13898;DHT22;7019;50.766;4.474;2023-08-01T00:13:06;16.10;99.90
13898;DHT22;7019;50.766;4.474;2023-08-01T00:15:33;16.10;99.90
13898;DHT22;7019;50.766;4.474;2023-08-01T00:18:00;16.10;99.90
13898;DHT22;7019;50.766;4.474;2023-08-01T00:20:27;16.10;99.90
13898;DHT22;7019;50.766;4.474;2023-08-01T00:22:56;16.00;99.90
13898;DHT22;7019;50.766;4.474;2023-08-01T00:25:23;16.00;99.90
13898;DHT22;7019;50.766;4.474;2023-08-01T00:27:50;16.00;99.90
13898;DHT22;7019;50.766;4.474;2023-08-01T00:30:17;16.00;99.90
13898;DHT22;7019;50.766;4.474;2023-08-01T00:32:44;16.00;99.90
13898;DHT22;7019;50.766;4.474;2023-08-01T00:35:11;16.00;99.90
13898;DHT22;7019;50.766;4.474;2023-08-01T00:37:38;16.00;99.90
13898;DHT22;7019;50.766;4.474;2023-08-01T00:40:08;16.00;99.90
13898;DHT22;7019;50.766;4.474;2023-08-01T00:42:36;16.00;99.90
13898;DHT22;7019;50.766;4.474;2023-08-01T00:45:05;16.00;99.90
13898;DHT22;7019;50.766;4.474;2023-08-01T00:47:32;15.90;99.90
13898;DHT22;7019;50.766;4.474;2023-08-01T00:49:59;15.90;99.90
13898;DHT22;7019;50.766;4.474;2023-08-01T00:52:27;15.90;99.90
13898;DHT22;7019;50.766;4.474;2023-08-01T00:54:55;15.80;99.90
13898;DHT22;7019;50.766;4.474;2023-08-01T00:57:23;15.80;99.90
13898;DHT22;7019;50.766;4.474;2023-08-01T00:59:50;15.80;99.90
13898;DHT22;7019;50.766;4.474;2023-08-01T01:02:18;15.80;99.90
13898;DHT22;7019;50.766;4.474;2023-08-01T01:04:45;15.80;99.90
13898;DHT22;7019;50.766;4.474;2023-08-01T01:07:14;15.70;99.90
13898;DHT22;7019;50.766;4.474;2023-08-01T01:09:42;15.70;99.90
13898;DHT22;7019;50.766;4.474;2023-08-01T01:12:09;15.70;99.90
13898;DHT22;7019;50.766;4.474;2023-08-01T01:14:38;15.70;99.90
13898;DHT22;7019;50.766;4.474;2023-08-01T01:17:05;15.70;99.90
13898;DHT22;7019;50.766;4.474;2023-08-01T01:19:32;15.70;99.90
13898;DHT22;7019;50.766;4.474;2023-08-01T01:22:02;15.70;99.90
13898;DHT22;7019;50.766;4.474;2023-08-01T01:24:30;15.70;99.90
13898;DHT22;7019;50.766;4.474;2023-08-01T01:26:58;15.70;99.90
13898;DHT22;7019;50.766;4.474;2023-08-01T01:29:27;15.60;99.90
13898;DHT22;7019;50.766;4.474;2023-08-01T01:31:54;15.60;99.90
13898;DHT22;7019;50.766;4.474;2023-08-01T01:34:22;15.50;99.90
13898;DHT22;7019;50.766;4.474;2023-08-01T01:36:49;15.50;99.90
13898;DHT22;7019;50.766;4.474;2023-08-01T01:39:17;15.50;99.90
13898;DHT22;7019;50.766;4.474;2023-08-01T01:41:44;15.50;99.90
13898;DHT22;7019;50.766;4.474;2023-08-01T01:44:11;15.50;99.90
13898;DHT22;7019;50.766;4.474;2023-08-01T01:46:39;15.50;99.90
13898;DHT22;7019;50.766;4.474;2023-08-01T01:49:06;15.50;99.90
13898;DHT22;7019;50.766;4.474;2023-08-01T01:51:33;15.50;99.90
13898;DHT22;7019;50.766;4.474;2023-08-01T01:54:00;15.50;99.90
13898;DHT22;7019;50.766;4.474;2023-08-01T01:56:28;15.50;99.90
13898;DHT22;7019;50.766;4.474;2023-08-01T01:58:56;15.50;99.90
13898;DHT22;7019;50.766;4.474;2023-08-01T02:01:23;15.50;99.90
13898;DHT22;7019;50.766;4.474;2023-08-01T02:03:50;15.50;99.90
13898;DHT22;7019;50.766;4.474;2023-08-01T02:06:17;15.50;99.90
13898;DHT22;7019;50.766;4.474;2023-08-01T02:08:45;15.50;99.90
13898;DHT22;7019;50.766;4.474;2023-08-01T02:11:12;15.40;99.90
13898;DHT22;7019;50.766;4.474;2023-08-01T02:13:40;15.40;99.90
13898;DHT22;7019;50.766;4.474;2023-08-01T02:16:07;15.40;99.90
13898;DHT22;7019;50.766;4.474;2023-08-01T02:18:34;15.40;99.90
13898;DHT22;7019;50.766;4.474;2023-08-01T02:21:01;15.50;99.90
13898;DHT22;7019;50.766;4.474;2023-08-01T02:23:28;15.50;99.90
13898;DHT22;7019;50.766;4.474;2023-08-01T02:25:55;15.40;99.90
13898;DHT22;7019;50.766;4.474;2023-08-01T02:28:22;15.40;99.90
13898;DHT22;7019;50.766;4.474;2023-08-01T02:30:51;15.40;99.90
13898;DHT22;7019;50.766;4.474;2023-08-01T02:33:18;15.40;99.90
13898;DHT22;7019;50.766;4.474;2023-08-01T02:35:46;15.40;99.90
13898;DHT22;7019;50.766;4.474;2023-08-01T02:38:13;15.30;99.90
13898;DHT22;7019;50.766;4.474;2023-08-01T02:40:40;15.30;99.90
13898;DHT22;7019;50.766;4.474;2023-08-01T02:43:07;15.30;99.90
13898;DHT22;7019;50.766;4.474;2023-08-01T02:45:34;15.30;99.90
13898;DHT22;7019;50.766;4.474;2023-08-01T02:48:03;15.30;99.90
13898;DHT22;7019;50.766;4.474;2023-08-01T02:50:30;15.30;99.90
13898;DHT22;7019;50.766;4.474;2023-08-01T02:52:57;15.20;99.90
13898;DHT22;7019;50.766;4.474;2023-08-01T02:55:24;15.30;99.90
13898;DHT22;7019;50.766;4.474;2023-08-01T02:57:51;15.30;99.90
13898;DHT22;7019;50.766;4.474;2023-08-01T03:00:18;15.20;99.90
13898;DHT22;7019;50.766;4.474;2023-08-01T03:02:45;15.30;99.90
13898;DHT22;7019;50.766;4.474;2023-08-01T03:05:13;15.20;99.90
13898;DHT22;7019;50.766;4.474;2023-08-01T03:07:40;15.20;99.90
13898;DHT22;7019;50.766;4.474;2023-08-01T03:10:08;15.20;99.90
13898;DHT22;7019;50.766;4.474;2023-08-01T03:12:37;15.20;99.90
13898;DHT22;7019;50.766;4.474;2023-08-01T03:15:04;15.20;99.90
13898;DHT22;7019;50.766;4.474;2023-08-01T03:17:34;15.20;99.90
13898;DHT22;7019;50.766;4.474;2023-08-01T03:20:01;15.20;99.90
13898;DHT22;7019;50.766;4.474;2023-08-01T03:22:30;15.20;99.90
13898;DHT22;7019;50.766;4.474;2023-08-01T03:24:57;15.20;99.90
13898;DHT22;7019;50.766;4.474;2023-08-01T03:27:24;15.20;99.90
13898;DHT22;7019;50.766;4.474;2023-08-01T03:29:51;15.20;99.90
13898;DHT22;7019;50.766;4.474;2023-08-01T03:32:18;15.20;99.90
13898;DHT22;7019;50.766;4.474;2023-08-01T03:34:46;15.20;99.90
13898;DHT22;7019;50.766;4.474;2023-08-01T03:37:13;15.20;99.90
13898;DHT22;7019;50.766;4.474;2023-08-01T03:39:42;15.20;99.90
13898;DHT22;7019;50.766;4.474;2023-08-01T03:42:08;15.20;99.90
13898;DHT22;7019;50.766;4.474;2023-08-01T03:44:36;15.20;99.90
13898;DHT22;7019;50.766;4.474;2023-08-01T03:47:03;15.20;99.90
13898;DHT22;7019;50.766;4.474;2023-08-01T03:49:30;15.20;99.90
13898;DHT22;7019;50.766;4.474;2023-08-01T03:51:57;15.20;99.90
13898;DHT22;7019;50.766;4.474;2023-08-01T03:54:25;15.20;99.90
13898;DHT22;7019;50.766;4.474;2023-08-01T03:56:53;15.20;99.90
13898;DHT22;7019;50.766;4.474;2023-08-01T03:59:20;15.20;99.90
13898;DHT22;7019;50.766;4.474;2023-08-01T04:01:47;15.20;99.90
13898;DHT22;7019;50.766;4.474;2023-08-01T04:04:14;15.20;99.90
13898;DHT22;7019;50.766;4.474;2023-08-01T04:06:41;15.20;99.90
13898;DHT22;7019;50.766;4.474;2023-08-01T04:09:08;15.20;99.90
13898;DHT22;7019;50.766;4.474;2023-08-01T04:11:35;15.20;99.90
13898;DHT22;7019;50.766;4.474;2023-08-01T04:14:03;15.20;99.90
13898;DHT22;7019;50.766;4.474;2023-08-01T04:16:30;15.20;99.90
13898;DHT22;7019;50.766;4.474;2023-08-01T04:18:57;15.20;99.90
13898;DHT22;7019;50.766;4.474;2023-08-01T04:21:24;15.20;99.90
13898;DHT22;7019;50.766;4.474;2023-08-01T04:23:51;15.20;99.90
13898;DHT22;7019;50.766;4.474;2023-08-01T04:26:19;15.20;99.90
13898;DHT22;7019;50.766;4.474;2023-08-01T04:28:46;15.20;99.90
13898;DHT22;7019;50.766;4.474;2023-08-01T04:31:15;15.20;99.90
13898;DHT22;7019;50.766;4.474;2023-08-01T04:33:43;15.10;99.90
13898;DHT22;7019;50.766;4.474;2023-08-01T04:36:10;15.10;99.90
13898;DHT22;7019;50.766;4.474;2023-08-01T04:38:37;15.10;99.90
13898;DHT22;7019;50.766;4.474;2023-08-01T04:41:04;15.10;99.90
13898;DHT22;7019;50.766;4.474;2023-08-01T04:43:31;15.10;99.90
13898;DHT22;7019;50.766;4.474;2023-08-01T04:45:58;15.10;99.90
13898;DHT22;7019;50.766;4.474;2023-08-01T04:48:27;15.10;99.90
13898;DHT22;7019;50.766;4.474;2023-08-01T04:50:54;15.20;99.90
13898;DHT22;7019;50.766;4.474;2023-08-01T04:53:21;15.20;99.90
13898;DHT22;7019;50.766;4.474;2023-08-01T04:55:48;15.20;99.90
13898;DHT22;7019;50.766;4.474;2023-08-01T04:58:15;15.20;99.90
13898;DHT22;7019;50.766;4.474;2023-08-01T05:00:42;15.20;99.90
13898;DHT22;7019;50.766;4.474;2023-08-01T05:03:09;15.20;99.90
13898;DHT22;7019;50.766;4.474;2023-08-01T05:05:38;15.20;99.90
13898;DHT22;7019;50.766;4.474;2023-08-01T05:08:05;15.30;99.90
13898;DHT22;7019;50.766;4.474;2023-08-01T05:10:32;15.30;99.90
13898;DHT22;7019;50.766;4.474;2023-08-01T05:12:59;15.40;99.90
13898;DHT22;7019;50.766;4.474;2023-08-01T05:15:26;15.40;99.90
13898;DHT22;7019;50.766;4.474;2023-08-01T05:17:53;15.40;99.90
13898;DHT22;7019;50.766;4.474;2023-08-01T05:20:21;15.40;99.90
13898;DHT22;7019;50.766;4.474;2023-08-01T05:22:50;15.50;99.90
13898;DHT22;7019;50.766;4.474;2023-08-01T05:25:17;15.40;99.90
13898;DHT22;7019;50.766;4.474;2023-08-01T05:27:44;15.40;99.90
13898;DHT22;7019;50.766;4.474;2023-08-01T05:30:11;15.40;99.90
13898;DHT22;7019;50.766;4.474;2023-08-01T05:32:38;15.40;99.90
13898;DHT22;7019;50.766;4.474;2023-08-01T05:35:07;15.50;99.90
13898;DHT22;7019;50.766;4.474;2023-08-01T05:37:34;15.60;99.90
13898;DHT22;7019;50.766;4.474;2023-08-01T05:40:04;15.60;99.90
13898;DHT22;7019;50.766;4.474;2023-08-01T05:42:31;15.60;99.90
13898;DHT22;7019;50.766;4.474;2023-08-01T05:44:58;15.60;99.90
13898;DHT22;7019;50.766;4.474;2023-08-01T05:47:25;15.60;99.90
13898;DHT22;7019;50.766;4.474;2023-08-01T05:49:52;15.60;99.90
13898;DHT22;7019;50.766;4.474;2023-08-01T05:52:19;15.60;99.90
13898;DHT22;7019;50.766;4.474;2023-08-01T05:54:46;15.60;99.90
13898;DHT22;7019;50.766;4.474;2023-08-01T05:57:15;15.70;99.90
13898;DHT22;7019;50.766;4.474;2023-08-01T05:59:42;15.80;99.90
13898;DHT22;7019;50.766;4.474;2023-08-01T06:02:09;15.80;99.90
13898;DHT22;7019;50.766;4.474;2023-08-01T06:04:36;15.90;99.90
13898;DHT22;7019;50.766;4.474;2023-08-01T06:07:05;16.00;99.90
13898;DHT22;7019;50.766;4.474;2023-08-01T06:09:32;16.10;99.90
13898;DHT22;7019;50.766;4.474;2023-08-01T06:11:59;16.20;99.90
13898;DHT22;7019;50.766;4.474;2023-08-01T06:14:28;16.40;99.90
13898;DHT22;7019;50.766;4.474;2023-08-01T06:16:55;16.60;99.90
13898;DHT22;7019;50.766;4.474;2023-08-01T06:19:22;16.60;99.90
13898;DHT22;7019;50.766;4.474;2023-08-01T06:21:49;16.60;99.90
13898;DHT22;7019;50.766;4.474;2023-08-01T06:24:16;16.60;99.90
13898;DHT22;7019;50.766;4.474;2023-08-01T06:26:44;16.50;99.90
13898;DHT22;7019;50.766;4.474;2023-08-01T06:29:11;16.40;99.90
13898;DHT22;7019;50.766;4.474;2023-08-01T06:31:39;16.30;99.90
13898;DHT22;7019;50.766;4.474;2023-08-01T06:34:06;16.30;99.90
13898;DHT22;7019;50.766;4.474;2023-08-01T06:36:33;16.40;99.90
13898;DHT22;7019;50.766;4.474;2023-08-01T06:39:01;16.50;99.90
13898;DHT22;7019;50.766;4.474;2023-08-01T06:41:29;16.70;99.90
13898;DHT22;7019;50.766;4.474;2023-08-01T06:43:56;16.90;99.90
13898;DHT22;7019;50.766;4.474;2023-08-01T06:46:23;17.10;99.90
13898;DHT22;7019;50.766;4.474;2023-08-01T06:48:51;17.30;99.90
13898;DHT22;7019;50.766;4.474;2023-08-01T06:51:18;17.50;99.90
13898;DHT22;7019;50.766;4.474;2023-08-01T06:53:45;17.60;99.90
13898;DHT22;7019;50.766;4.474;2023-08-01T06:56:13;18.00;99.90
13898;DHT22;7019;50.766;4.474;2023-08-01T06:58:40;18.10;99.90
13898;DHT22;7019;50.766;4.474;2023-08-01T07:01:07;18.10;99.90
13898;DHT22;7019;50.766;4.474;2023-08-01T07:03:36;18.10;99.90
13898;DHT22;7019;50.766;4.474;2023-08-01T07:06:05;18.10;99.90
13898;DHT22;7019;50.766;4.474;2023-08-01T07:08:32;18.40;99.90
13898;DHT22;7019;50.766;4.474;2023-08-01T07:11:04;18.50;99.90
13898;DHT22;7019;50.766;4.474;2023-08-01T07:13:36;18.60;99.90
13898;DHT22;7019;50.766;4.474;2023-08-01T07:16:12;18.70;99.90
13898;DHT22;7019;50.766;4.474;2023-08-01T07:18:41;18.90;99.90
13898;DHT22;7019;50.766;4.474;2023-08-01T07:21:10;19.20;99.90
13898;DHT22;7019;50.766;4.474;2023-08-01T07:23:37;19.40;99.90
13898;DHT22;7019;50.766;4.474;2023-08-01T07:26:05;19.40;99.90
13898;DHT22;7019;50.766;4.474;2023-08-01T07:28:33;19.30;99.90
13898;DHT22;7019;50.766;4.474;2023-08-01T07:31:01;19.20;99.90
13898;DHT22;7019;50.766;4.474;2023-08-01T07:33:30;19.10;99.90
13898;DHT22;7019;50.766;4.474;2023-08-01T07:35:58;19.00;99.90
13898;DHT22;7019;50.766;4.474;2023-08-01T07:38:28;18.80;99.90
13898;DHT22;7019;50.766;4.474;2023-08-01T07:40:59;18.60;99.90
13898;DHT22;7019;50.766;4.474;2023-08-01T07:43:29;18.60;99.90
13898;DHT22;7019;50.766;4.474;2023-08-01T07:45:56;18.50;99.90
13898;DHT22;7019;50.766;4.474;2023-08-01T07:48:24;18.60;99.90
13898;DHT22;7019;50.766;4.474;2023-08-01T07:50:51;18.80;99.90
13898;DHT22;7019;50.766;4.474;2023-08-01T07:53:19;18.90;99.90
13898;DHT22;7019;50.766;4.474;2023-08-01T07:55:47;19.10;99.90
13898;DHT22;7019;50.766;4.474;2023-08-01T07:58:15;19.10;99.90
13898;DHT22;7019;50.766;4.474;2023-08-01T08:00:42;19.10;99.90
13898;DHT22;7019;50.766;4.474;2023-08-01T08:03:09;19.00;99.90
13898;DHT22;7019;50.766;4.474;2023-08-01T08:05:36;19.40;99.90
13898;DHT22;7019;50.766;4.474;2023-08-01T08:08:04;20.00;99.90
13898;DHT22;7019;50.766;4.474;2023-08-01T08:10:31;20.60;99.90
13898;DHT22;7019;50.766;4.474;2023-08-01T08:13:00;21.50;99.90
13898;DHT22;7019;50.766;4.474;2023-08-01T08:15:27;22.30;99.90
13898;DHT22;7019;50.766;4.474;2023-08-01T08:17:59;22.70;99.90
13898;DHT22;7019;50.766;4.474;2023-08-01T08:20:26;22.80;99.90
13898;DHT22;7019;50.766;4.474;2023-08-01T08:22:54;22.80;99.90
13898;DHT22;7019;50.766;4.474;2023-08-01T08:25:21;23.00;99.90
13898;DHT22;7019;50.766;4.474;2023-08-01T08:27:49;23.00;99.90
13898;DHT22;7019;50.766;4.474;2023-08-01T08:30:17;22.80;99.90
13898;DHT22;7019;50.766;4.474;2023-08-01T08:32:44;22.30;99.90
13898;DHT22;7019;50.766;4.474;2023-08-01T08:35:12;22.10;99.90
13898;DHT22;7019;50.766;4.474;2023-08-01T08:37:39;21.90;99.90
13898;DHT22;7019;50.766;4.474;2023-08-01T08:40:06;21.90;99.90
13898;DHT22;7019;50.766;4.474;2023-08-01T08:42:34;21.80;99.90
13898;DHT22;7019;50.766;4.474;2023-08-01T08:45:02;21.90;99.90
13898;DHT22;7019;50.766;4.474;2023-08-01T08:47:36;22.50;99.90
13898;DHT22;7019;50.766;4.474;2023-08-01T08:50:04;23.10;99.90
13898;DHT22;7019;50.766;4.474;2023-08-01T08:52:31;23.70;99.90
13898;DHT22;7019;50.766;4.474;2023-08-01T08:54:58;24.30;99.90
13898;DHT22;7019;50.766;4.474;2023-08-01T08:57:26;24.60;99.90
13898;DHT22;7019;50.766;4.474;2023-08-01T08:59:54;24.90;99.90
13898;DHT22;7019;50.766;4.474;2023-08-01T09:02:23;25.50;99.90
13898;DHT22;7019;50.766;4.474;2023-08-01T09:04:51;25.60;99.90
13898;DHT22;7019;50.766;4.474;2023-08-01T09:07:20;25.50;99.90
13898;DHT22;7019;50.766;4.474;2023-08-01T09:09:49;24.90;99.90
13898;DHT22;7019;50.766;4.474;2023-08-01T09:12:16;24.40;99.90
13898;DHT22;7019;50.766;4.474;2023-08-01T09:14:43;24.40;99.90
13898;DHT22;7019;50.766;4.474;2023-08-01T09:17:12;24.70;99.90
13898;DHT22;7019;50.766;4.474;2023-08-01T09:19:42;25.10;99.90
13898;DHT22;7019;50.766;4.474;2023-08-01T09:22:14;25.20;99.90
13898;DHT22;7019;50.766;4.474;2023-08-01T09:24:51;25.30;99.90
13898;DHT22;7019;50.766;4.474;2023-08-01T09:27:18;25.80;99.90
13898;DHT22;7019;50.766;4.474;2023-08-01T09:29:47;25.60;99.90
13898;DHT22;7019;50.766;4.474;2023-08-01T09:32:15;24.70;99.90
13898;DHT22;7019;50.766;4.474;2023-08-01T09:34:43;24.10;99.90
13898;DHT22;7019;50.766;4.474;2023-08-01T09:37:12;23.30;99.90
13898;DHT22;7019;50.766;4.474;2023-08-01T09:39:39;22.70;99.90
13898;DHT22;7019;50.766;4.474;2023-08-01T09:42:08;22.40;99.90
13898;DHT22;7019;50.766;4.474;2023-08-01T09:44:35;22.20;99.90
13898;DHT22;7019;50.766;4.474;2023-08-01T09:47:06;22.10;99.90
13898;DHT22;7019;50.766;4.474;2023-08-01T09:49:33;22.00;99.90
13898;DHT22;7019;50.766;4.474;2023-08-01T09:52:02;21.70;99.90
13898;DHT22;7019;50.766;4.474;2023-08-01T09:54:30;21.30;99.90
13898;DHT22;7019;50.766;4.474;2023-08-01T09:56:58;21.20;99.90
13898;DHT22;7019;50.766;4.474;2023-08-01T09:59:26;21.10;99.90
13898;DHT22;7019;50.766;4.474;2023-08-01T10:01:54;21.10;99.90
13898;DHT22;7019;50.766;4.474;2023-08-01T10:04:25;20.90;99.90
13898;DHT22;7019;50.766;4.474;2023-08-01T10:06:57;20.90;99.90
13898;DHT22;7019;50.766;4.474;2023-08-01T10:09:25;21.10;99.90
13898;DHT22;7019;50.766;4.474;2023-08-01T10:11:56;21.20;99.90
13898;DHT22;7019;50.766;4.474;2023-08-01T10:14:25;21.70;99.90
13898;DHT22;7019;50.766;4.474;2023-08-01T10:16:53;22.60;99.90
13898;DHT22;7019;50.766;4.474;2023-08-01T10:19:20;23.10;99.90
13898;DHT22;7019;50.766;4.474;2023-08-01T10:21:49;23.80;99.90
13898;DHT22;7019;50.766;4.474;2023-08-01T10:24:17;24.40;99.90
13898;DHT22;7019;50.766;4.474;2023-08-01T10:26:45;24.30;99.90
13898;DHT22;7019;50.766;4.474;2023-08-01T10:29:13;24.50;99.90
13898;DHT22;7019;50.766;4.474;2023-08-01T10:31:50;24.20;99.90
13898;DHT22;7019;50.766;4.474;2023-08-01T10:34:19;23.80;99.90
13898;DHT22;7019;50.766;4.474;2023-08-01T10:36:53;23.80;99.90
13898;DHT22;7019;50.766;4.474;2023-08-01T10:39:22;24.20;99.90
13898;DHT22;7019;50.766;4.474;2023-08-01T10:41:57;24.30;99.90
13898;DHT22;7019;50.766;4.474;2023-08-01T10:44:26;23.90;99.90
13898;DHT22;7019;50.766;4.474;2023-08-01T10:46:56;23.40;99.90
13898;DHT22;7019;50.766;4.474;2023-08-01T10:49:35;23.10;99.90
13898;DHT22;7019;50.766;4.474;2023-08-01T10:52:02;23.30;99.90
13898;DHT22;7019;50.766;4.474;2023-08-01T10:54:29;23.70;99.90
13898;DHT22;7019;50.766;4.474;2023-08-01T10:56:59;23.90;99.90
13898;DHT22;7019;50.766;4.474;2023-08-01T10:59:29;24.10;99.90
13898;DHT22;7019;50.766;4.474;2023-08-01T11:01:58;24.00;99.90
13898;DHT22;7019;50.766;4.474;2023-08-01T11:04:26;23.40;99.90
13898;DHT22;7019;50.766;4.474;2023-08-01T11:06:54;22.90;99.90
13898;DHT22;7019;50.766;4.474;2023-08-01T11:09:23;22.80;99.90
13898;DHT22;7019;50.766;4.474;2023-08-01T11:11:53;22.80;99.90
13898;DHT22;7019;50.766;4.474;2023-08-01T11:14:20;22.70;99.90
13898;DHT22;7019;50.766;4.474;2023-08-01T12:54:46;22.90;99.90
13898;DHT22;7019;50.766;4.474;2023-08-01T12:57:13;22.30;99.90
13898;DHT22;7019;50.766;4.474;2023-08-01T12:59:40;22.00;99.90
13898;DHT22;7019;50.766;4.474;2023-08-01T13:02:07;21.80;99.90
13898;DHT22;7019;50.766;4.474;2023-08-01T13:04:35;21.80;99.90
13898;DHT22;7019;50.766;4.474;2023-08-01T13:07:02;21.80;99.90
13898;DHT22;7019;50.766;4.474;2023-08-01T13:09:29;21.90;99.90
13898;DHT22;7019;50.766;4.474;2023-08-01T13:11:57;21.80;99.90
13898;DHT22;7019;50.766;4.474;2023-08-01T13:14:26;21.80;99.90
13898;DHT22;7019;50.766;4.474;2023-08-01T13:16:53;21.80;99.90
13898;DHT22;7019;50.766;4.474;2023-08-01T13:19:20;21.70;99.90
13898;DHT22;7019;50.766;4.474;2023-08-01T13:21:47;21.50;99.90
13898;DHT22;7019;50.766;4.474;2023-08-01T13:24:14;21.60;99.90
13898;DHT22;7019;50.766;4.474;2023-08-01T13:26:41;21.60;99.90
13898;DHT22;7019;50.766;4.474;2023-08-01T13:29:09;21.70;99.90
13898;DHT22;7019;50.766;4.474;2023-08-01T13:31:37;21.60;99.90
13898;DHT22;7019;50.766;4.474;2023-08-01T13:34:04;21.50;99.90
13898;DHT22;7019;50.766;4.474;2023-08-01T13:36:31;21.40;99.90
13898;DHT22;7019;50.766;4.474;2023-08-01T13:38:58;21.70;99.90
13898;DHT22;7019;50.766;4.474;2023-08-01T13:41:25;22.20;99.90
13898;DHT22;7019;50.766;4.474;2023-08-01T13:43:52;22.50;99.90
13898;DHT22;7019;50.766;4.474;2023-08-01T13:46:20;22.90;99.90
13898;DHT22;7019;50.766;4.474;2023-08-01T13:48:47;23.00;99.90
13898;DHT22;7019;50.766;4.474;2023-08-01T13:51:14;22.70;99.90
13898;DHT22;7019;50.766;4.474;2023-08-01T13:53:43;22.50;99.90
13898;DHT22;7019;50.766;4.474;2023-08-01T13:56:10;22.40;99.90
13898;DHT22;7019;50.766;4.474;2023-08-01T13:58:38;22.70;99.90
13898;DHT22;7019;50.766;4.474;2023-08-01T14:01:06;23.10;99.90
13898;DHT22;7019;50.766;4.474;2023-08-01T14:03:38;23.20;99.90
13898;DHT22;7019;50.766;4.474;2023-08-01T14:06:05;23.20;99.90
13898;DHT22;7019;50.766;4.474;2023-08-01T14:08:33;23.20;99.90
13898;DHT22;7019;50.766;4.474;2023-08-01T14:11:02;23.30;99.90
13898;DHT22;7019;50.766;4.474;2023-08-01T14:13:29;23.40;99.90
13898;DHT22;7019;50.766;4.474;2023-08-01T14:15:56;23.50;99.90
13898;DHT22;7019;50.766;4.474;2023-08-01T14:18:23;23.40;99.90
13898;DHT22;7019;50.766;4.474;2023-08-01T14:20:52;23.60;99.90
13898;DHT22;7019;50.766;4.474;2023-08-01T14:23:20;23.40;99.90
13898;DHT22;7019;50.766;4.474;2023-08-01T14:25:47;23.40;99.90
13898;DHT22;7019;50.766;4.474;2023-08-01T14:28:14;23.00;99.90
13898;DHT22;7019;50.766;4.474;2023-08-01T14:30:41;22.80;99.90
13898;DHT22;7019;50.766;4.474;2023-08-01T14:33:08;22.40;99.90
13898;DHT22;7019;50.766;4.474;2023-08-01T14:35:36;22.00;99.90
13898;DHT22;7019;50.766;4.474;2023-08-01T14:38:05;21.80;99.90
13898;DHT22;7019;50.766;4.474;2023-08-01T14:40:33;21.70;99.90
13898;DHT22;7019;50.766;4.474;2023-08-01T14:43:01;21.50;99.90
13898;DHT22;7019;50.766;4.474;2023-08-01T14:45:28;21.40;99.90
13898;DHT22;7019;50.766;4.474;2023-08-01T14:47:56;21.40;99.90
13898;DHT22;7019;50.766;4.474;2023-08-01T14:50:23;21.30;99.90
13898;DHT22;7019;50.766;4.474;2023-08-01T14:52:50;21.10;99.90
13898;DHT22;7019;50.766;4.474;2023-08-01T14:55:19;20.80;99.90
13898;DHT22;7019;50.766;4.474;2023-08-01T14:57:46;20.60;99.90
13898;DHT22;7019;50.766;4.474;2023-08-01T15:00:14;20.40;99.90
13898;DHT22;7019;50.766;4.474;2023-08-01T15:02:41;20.20;99.90
13898;DHT22;7019;50.766;4.474;2023-08-01T15:05:09;20.00;99.90
13898;DHT22;7019;50.766;4.474;2023-08-01T15:07:36;19.80;99.90
13898;DHT22;7019;50.766;4.474;2023-08-01T15:10:03;19.60;99.90
13898;DHT22;7019;50.766;4.474;2023-08-01T15:12:32;19.50;99.90
13898;DHT22;7019;50.766;4.474;2023-08-01T15:14:59;19.30;99.90
13898;DHT22;7019;50.766;4.474;2023-08-01T15:17:26;19.20;99.90
13898;DHT22;7019;50.766;4.474;2023-08-01T15:19:53;19.20;99.90
13898;DHT22;7019;50.766;4.474;2023-08-01T15:22:20;19.10;99.90
13898;DHT22;7019;50.766;4.474;2023-08-01T15:24:48;19.10;99.90
13898;DHT22;7019;50.766;4.474;2023-08-01T15:27:15;19.00;99.90
13898;DHT22;7019;50.766;4.474;2023-08-01T15:29:46;19.10;99.90
13898;DHT22;7019;50.766;4.474;2023-08-01T15:32:13;19.10;99.90
13898;DHT22;7019;50.766;4.474;2023-08-01T15:34:40;19.10;99.90
13898;DHT22;7019;50.766;4.474;2023-08-01T15:37:07;19.20;99.90
13898;DHT22;7019;50.766;4.474;2023-08-01T15:39:35;19.20;99.90
13898;DHT22;7019;50.766;4.474;2023-08-01T15:42:02;19.20;99.90
13898;DHT22;7019;50.766;4.474;2023-08-01T15:44:29;19.20;99.90
13898;DHT22;7019;50.766;4.474;2023-08-01T15:46:58;19.20;99.90
13898;DHT22;7019;50.766;4.474;2023-08-01T15:49:25;19.20;99.90
13898;DHT22;7019;50.766;4.474;2023-08-01T15:51:53;19.20;99.90
13898;DHT22;7019;50.766;4.474;2023-08-01T15:54:20;19.20;99.90
13898;DHT22;7019;50.766;4.474;2023-08-01T15:56:47;19.20;99.90
13898;DHT22;7019;50.766;4.474;2023-08-01T15:59:14;19.20;99.90
13898;DHT22;7019;50.766;4.474;2023-08-01T16:01:41;19.30;99.90
13898;DHT22;7019;50.766;4.474;2023-08-01T16:04:09;19.30;99.90
13898;DHT22;7019;50.766;4.474;2023-08-01T16:06:38;19.40;99.90
13898;DHT22;7019;50.766;4.474;2023-08-01T16:09:05;19.50;99.90
13898;DHT22;7019;50.766;4.474;2023-08-01T16:11:32;19.50;99.90
13898;DHT22;7019;50.766;4.474;2023-08-01T16:13:59;19.60;99.90
13898;DHT22;7019;50.766;4.474;2023-08-01T16:16:26;19.70;99.90
13898;DHT22;7019;50.766;4.474;2023-08-01T16:18:54;19.60;99.90
13898;DHT22;7019;50.766;4.474;2023-08-01T16:21:22;19.50;99.90
13898;DHT22;7019;50.766;4.474;2023-08-01T16:23:49;19.20;99.90
13898;DHT22;7019;50.766;4.474;2023-08-01T16:26:16;19.00;99.90
13898;DHT22;7019;50.766;4.474;2023-08-01T16:28:43;18.90;99.90
13898;DHT22;7019;50.766;4.474;2023-08-01T16:31:10;18.90;99.90
13898;DHT22;7019;50.766;4.474;2023-08-01T16:33:37;19.30;99.90
13898;DHT22;7019;50.766;4.474;2023-08-01T16:36:05;19.80;99.90
13898;DHT22;7019;50.766;4.474;2023-08-01T16:38:33;20.20;99.90
13898;DHT22;7019;50.766;4.474;2023-08-01T16:41:04;20.30;99.90
13898;DHT22;7019;50.766;4.474;2023-08-01T16:43:32;20.40;99.90
13898;DHT22;7019;50.766;4.474;2023-08-01T16:45:59;20.40;99.90
13898;DHT22;7019;50.766;4.474;2023-08-01T16:48:28;20.40;99.90
13898;DHT22;7019;50.766;4.474;2023-08-01T16:50:56;20.40;99.90
13898;DHT22;7019;50.766;4.474;2023-08-01T16:53:23;20.40;99.90
13898;DHT22;7019;50.766;4.474;2023-08-01T16:55:52;20.50;99.90
13898;DHT22;7019;50.766;4.474;2023-08-01T16:58:21;20.50;99.90
13898;DHT22;7019;50.766;4.474;2023-08-01T17:00:49;20.50;99.90
13898;DHT22;7019;50.766;4.474;2023-08-01T17:03:17;20.50;99.90
13898;DHT22;7019;50.766;4.474;2023-08-01T17:05:44;20.50;99.90
13898;DHT22;7019;50.766;4.474;2023-08-01T17:08:11;20.40;99.90
13898;DHT22;7019;50.766;4.474;2023-08-01T17:10:38;20.40;99.90
13898;DHT22;7019;50.766;4.474;2023-08-01T17:13:07;20.40;99.90
13898;DHT22;7019;50.766;4.474;2023-08-01T17:15:34;20.40;99.90
13898;DHT22;7019;50.766;4.474;2023-08-01T17:18:01;20.30;99.90
13898;DHT22;7019;50.766;4.474;2023-08-01T17:20:28;20.20;99.90
13898;DHT22;7019;50.766;4.474;2023-08-01T17:23:00;20.20;99.90
13898;DHT22;7019;50.766;4.474;2023-08-01T17:25:28;20.20;99.90